Time;durP1;ratioP1;P1;durP2;ratioP2;P2;SDS_P1;SDS_P2;PMS_P1;PMS_P2;Temp;Humidity;BMP_temperature;BMP_pressure;BME280_temperature;BME280_humidity;BME280_pressure;Samples;Min_cycle;Max_cycle;Signal;HPM_P1;HPM_P2
2024/01/15 00:02:14;;;;;;;1.50;1.40;;;16.60;53.50;;;;;;5051942;28;20717;-63
2024/01/15 00:04:40;;;;;;;1.70;1.60;;;16.60;53.50;;;;;;5052587;28;20171;-64
2024/01/15 00:07:06;;;;;;;1.95;1.45;;;16.60;53.40;;;;;;5052014;28;20179;-64
2024/01/15 00:09:32;;;;;;;1.77;1.50;;;16.60;53.50;;;;;;5052176;28;20185;-64
2024/01/15 00:11:58;;;;;;;1.48;1.27;;;16.60;53.40;;;;;;5052686;28;20223;-64
2024/01/15 00:14:24;;;;;;;2.17;1.50;;;16.60;53.50;;;;;;5051384;28;20175;-64
2024/01/15 00:16:51;;;;;;;1.77;1.35;;;16.50;53.40;;;;;;5052562;28;20181;-63
2024/01/15 00:19:17;;;;;;;1.40;1.30;;;16.50;53.40;;;;;;5052117;28;20179;-63
2024/01/15 00:21:42;;;;;;;1.70;1.30;;;16.50;53.40;;;;;;5051758;28;20258;-64
2024/01/15 00:24:08;;;;;;;1.40;1.30;;;16.50;53.40;;;;;;5052381;28;20698;-64
2024/01/15 00:26:33;;;;;;;1.35;1.25;;;16.40;53.40;;;;;;5052026;28;20179;-63
2024/01/15 00:28:59;;;;;;;2.15;1.27;;;16.40;53.40;;;;;;5051786;28;20553;-63
2024/01/15 00:31:25;;;;;;;1.60;1.23;;;16.40;53.40;;;;;;5051826;28;20674;-64
2024/01/15 00:33:50;;;;;;;1.65;1.40;;;16.40;53.50;;;;;;5052303;28;20202;-63
2024/01/15 00:36:16;;;;;;;1.73;1.30;;;16.40;53.50;;;;;;5051229;28;20171;-64
2024/01/15 00:38:42;;;;;;;1.52;1.42;;;16.30;53.50;;;;;;5052077;28;20175;-64
2024/01/15 00:41:07;;;;;;;1.77;1.27;;;16.30;53.50;;;;;;5052344;28;20183;-64
2024/01/15 00:43:33;;;;;;;1.10;1.10;;;16.30;53.50;;;;;;5051048;28;20274;-64
2024/01/15 00:46:02;;;;;;;1.45;1.35;;;16.30;53.50;;;;;;5052206;28;20301;-64
2024/01/15 00:48:27;;;;;;;1.40;1.20;;;16.30;53.50;;;;;;5051706;28;20186;-64
2024/01/15 00:50:54;;;;;;;1.45;1.30;;;16.20;53.50;;;;;;5051190;28;20223;-65
2024/01/15 00:53:21;;;;;;;1.80;1.13;;;16.20;53.50;;;;;;5051650;28;20240;-64
2024/01/15 00:55:47;;;;;;;2.50;1.50;;;16.20;53.50;;;;;;5051936;28;20732;-63
2024/01/15 00:58:13;;;;;;;1.67;1.42;;;16.20;53.50;;;;;;5051455;28;20206;-64
2024/01/15 01:00:38;;;;;;;1.27;1.00;;;16.20;53.50;;;;;;5051745;28;20198;-65
2024/01/15 01:03:04;;;;;;;1.65;1.30;;;16.20;53.50;;;;;;5052026;28;20175;-64
2024/01/15 01:05:29;;;;;;;2.95;1.50;;;16.20;53.50;;;;;;5050947;28;20236;-64
2024/01/15 01:07:55;;;;;;;1.95;1.30;;;16.20;53.50;;;;;;5051785;28;20621;-64
2024/01/15 01:10:20;;;;;;;1.57;1.20;;;16.20;53.50;;;;;;5051046;28;20258;-65
2024/01/15 01:12:46;;;;;;;1.67;1.33;;;16.10;53.50;;;;;;5052057;28;20454;-64
2024/01/15 01:15:12;;;;;;;2.40;1.20;;;16.10;53.50;;;;;;5051797;28;20183;-65
2024/01/15 01:17:37;;;;;;;1.63;1.17;;;16.10;53.50;;;;;;5050777;28;20214;-66
2024/01/15 01:20:04;;;;;;;1.55;1.10;;;16.10;53.40;;;;;;5051678;28;20171;-63
2024/01/15 01:22:30;;;;;;;1.13;1.02;;;16.10;53.50;;;;;;5051196;28;20232;-64
2024/01/15 01:24:55;;;;;;;1.98;1.40;;;16.10;53.50;;;;;;5051152;28;20175;-63
2024/01/15 01:27:21;;;;;;;1.50;1.30;;;16.00;53.50;;;;;;5051487;28;20598;-64
2024/01/15 01:29:47;;;;;;;1.75;1.13;;;16.10;53.50;;;;;;5051797;28;20217;-63
2024/01/15 01:32:12;;;;;;;1.27;1.15;;;16.00;53.50;;;;;;5050978;28;20210;-63
2024/01/15 01:34:42;;;;;;;1.35;1.20;;;16.00;53.50;;;;;;5051353;28;20532;-64
2024/01/15 01:37:08;;;;;;;1.60;1.02;;;16.00;53.50;;;;;;5051453;28;20182;-64
2024/01/15 01:39:33;;;;;;;1.42;1.25;;;16.00;53.50;;;;;;5054465;28;20175;-64
2024/01/15 01:41:59;;;;;;;1.45;1.02;;;16.00;53.50;;;;;;5055556;28;20665;-63
2024/01/15 01:44:24;;;;;;;2.58;1.13;;;16.00;53.50;;;;;;5054934;28;20626;-64
2024/01/15 01:46:50;;;;;;;2.45;1.20;;;16.00;53.60;;;;;;5054654;28;20171;-64
2024/01/15 01:49:15;;;;;;;1.45;1.35;;;16.00;53.50;;;;;;5054896;28;20171;-64
2024/01/15 01:51:41;;;;;;;1.67;1.00;;;15.90;53.50;;;;;;5054876;28;20594;-63
2024/01/15 01:54:07;;;;;;;2.22;1.10;;;15.90;53.50;;;;;;5054366;28;20630;-64
2024/01/15 01:56:33;;;;;;;2.03;1.20;;;15.90;53.50;;;;;;5054949;28;20183;-64
2024/01/15 01:58:59;;;;;;;0.85;0.85;;;15.90;53.60;;;;;;5053804;28;20178;-64
2024/01/15 02:01:25;;;;;;;1.55;1.00;;;15.90;53.60;;;;;;5053936;28;20190;-64
2024/01/15 02:03:50;;;;;;;2.30;1.35;;;15.90;53.60;;;;;;5054937;28;20171;-63
2024/01/15 02:06:16;;;;;;;2.67;1.13;;;15.90;53.50;;;;;;5054454;28;20174;-64
2024/01/15 02:08:43;;;;;;;1.08;0.90;;;15.90;53.60;;;;;;5053200;28;20175;-64
2024/01/15 02:11:08;;;;;;;1.20;1.05;;;15.90;53.60;;;;;;5053671;28;20210;-64
2024/01/15 02:13:34;;;;;;;3.13;1.40;;;15.90;53.60;;;;;;5053947;28;20552;-63
2024/01/15 02:15:59;;;;;;;1.67;1.25;;;15.80;53.60;;;;;;5054739;28;20549;-63
2024/01/15 02:18:25;;;;;;;2.67;1.10;;;15.80;53.60;;;;;;5054327;28;20596;-63
2024/01/15 02:20:50;;;;;;;1.48;1.30;;;15.80;53.50;;;;;;5053850;28;20274;-64
2024/01/15 02:23:16;;;;;;;3.33;1.33;;;15.80;53.60;;;;;;5054260;28;20274;-64
2024/01/15 02:25:47;;;;;;;1.95;1.10;;;15.80;53.50;;;;;;5054884;28;20258;-63
2024/01/15 02:28:14;;;;;;;2.78;1.30;;;15.80;53.60;;;;;;5054026;28;20645;-63
2024/01/15 02:30:40;;;;;;;2.15;1.20;;;15.80;53.60;;;;;;5054344;28;20183;-63
2024/01/15 02:33:09;;;;;;;2.47;0.98;;;15.70;53.60;;;;;;5054387;28;20179;-64
2024/01/15 02:35:37;;;;;;;1.85;1.27;;;15.80;53.70;;;;;;5053295;28;20222;-64
2024/01/15 02:38:04;;;;;;;3.08;1.20;;;15.80;53.60;;;;;;5054285;28;20179;-64
2024/01/15 02:40:30;;;;;;;1.58;1.10;;;15.80;53.70;;;;;;5053979;28;20218;-64
2024/01/15 02:42:55;;;;;;;3.35;1.42;;;15.70;54.20;;;;;;5053428;28;20662;-63
2024/01/15 02:45:21;;;;;;;2.38;1.20;;;15.70;53.60;;;;;;5053810;28;20179;-64
2024/01/15 02:47:47;;;;;;;1.70;1.10;;;15.70;53.60;;;;;;5054128;28;20175;-64
2024/01/15 02:50:13;;;;;;;4.45;1.23;;;15.70;53.60;;;;;;5053124;28;20685;-64
2024/01/15 02:52:38;;;;;;;2.13;1.20;;;15.70;53.60;;;;;;5054206;28;20317;-64
2024/01/15 02:55:04;;;;;;;1.63;1.05;;;15.70;53.60;;;;;;5054158;28;20304;-64
2024/01/15 02:57:29;;;;;;;1.33;1.08;;;15.70;53.60;;;;;;5053061;28;20661;-65
2024/01/15 02:59:55;;;;;;;2.15;1.10;;;15.60;53.60;;;;;;5053882;28;20175;-64
2024/01/15 03:02:20;;;;;;;2.72;1.15;;;15.60;53.60;;;;;;5053472;28;20179;-65
2024/01/15 03:04:46;;;;;;;2.70;1.20;;;15.60;53.60;;;;;;5053116;28;20174;-64
2024/01/15 03:07:12;;;;;;;1.80;1.30;;;15.60;53.60;;;;;;5053714;28;20179;-64
2024/01/15 03:09:37;;;;;;;2.15;1.08;;;15.60;53.60;;;;;;5053732;28;20175;-64
2024/01/15 03:12:03;;;;;;;2.33;1.25;;;15.60;53.60;;;;;;5053100;28;20214;-64
2024/01/15 03:14:29;;;;;;;1.98;1.10;;;15.50;53.50;;;;;;5053556;28;20175;-66
2024/01/15 03:16:55;;;;;;;2.47;1.17;;;15.60;53.60;;;;;;5053111;28;20178;-63
2024/01/15 03:19:20;;;;;;;2.78;1.10;;;15.50;53.50;;;;;;5053498;28;20171;-63
2024/01/15 03:21:46;;;;;;;1.63;1.13;;;15.60;53.60;;;;;;5053667;28;20257;-64
2024/01/15 03:24:11;;;;;;;2.67;1.30;;;15.60;53.60;;;;;;5052933;28;20610;-64
2024/01/15 03:26:37;;;;;;;1.35;0.80;;;15.50;53.60;;;;;;5053046;28;20664;-63
2024/01/15 03:29:02;;;;;;;2.58;1.13;;;15.60;53.60;;;;;;5053356;28;20681;-63
2024/01/15 03:31:28;;;;;;;1.85;0.93;;;15.50;53.60;;;;;;5052105;28;20302;-63
2024/01/15 03:33:53;;;;;;;3.08;1.20;;;15.50;53.60;;;;;;5053143;28;20226;-63
2024/01/15 03:36:19;;;;;;;2.83;1.35;;;15.50;53.60;;;;;;5053111;28;20211;-63
2024/01/15 03:38:44;;;;;;;1.85;1.35;;;15.50;53.60;;;;;;5052542;28;20203;-64
2024/01/15 03:41:10;;;;;;;1.60;0.90;;;15.50;53.70;;;;;;5053169;28;20210;-64
2024/01/15 03:43:35;;;;;;;2.38;0.98;;;15.50;53.70;;;;;;5052806;28;20211;-63
2024/01/15 03:46:02;;;;;;;2.28;1.00;;;15.50;53.60;;;;;;5052307;28;20214;-64
2024/01/15 03:48:27;;;;;;;1.30;1.20;;;15.50;53.70;;;;;;5052679;28;20183;-63
2024/01/15 03:50:53;;;;;;;2.45;1.17;;;15.50;53.60;;;;;;5052617;28;20233;-63
2024/01/15 03:53:18;;;;;;;2.70;1.10;;;15.50;53.70;;;;;;5051773;28;20214;-64
2024/01/15 03:55:44;;;;;;;2.65;1.23;;;15.40;53.60;;;;;;5052798;28;20175;-64
2024/01/15 03:58:09;;;;;;;2.83;0.98;;;15.40;53.60;;;;;;5052784;28;20175;-64
2024/01/15 04:00:35;;;;;;;1.45;1.15;;;15.40;53.60;;;;;;5051294;28;20175;-64
2024/01/15 04:03:00;;;;;;;2.40;1.13;;;15.40;53.50;;;;;;5052704;28;20183;-64
2024/01/15 04:05:26;;;;;;;1.83;0.98;;;15.40;53.60;;;;;;5052523;28;20585;-64
2024/01/15 04:07:52;;;;;;;2.95;1.05;;;15.40;53.60;;;;;;5052131;28;20725;-64
2024/01/15 04:10:17;;;;;;;1.95;0.90;;;15.40;53.60;;;;;;5052283;28;20649;-64
2024/01/15 04:12:43;;;;;;;1.65;0.90;;;15.40;53.70;;;;;;5052417;28;20685;-64
2024/01/15 04:15:08;;;;;;;2.00;1.00;;;15.40;53.70;;;;;;5051862;28;20199;-64
2024/01/15 04:17:34;;;;;;;2.38;0.90;;;15.40;53.70;;;;;;5052104;28;20179;-63
2024/01/15 04:19:59;;;;;;;3.00;1.33;;;15.30;53.70;;;;;;5052616;28;20218;-63
2024/01/15 04:22:26;;;;;;;1.65;1.00;;;15.40;53.70;;;;;;5051576;28;20197;-64
2024/01/15 04:24:51;;;;;;;2.17;1.33;;;15.40;53.70;;;;;;5052532;28;20206;-64
2024/01/15 04:27:17;;;;;;;2.75;1.10;;;15.40;53.70;;;;;;5051402;28;20653;-63
2024/01/15 04:29:44;;;;;;;0.73;0.70;;;15.40;53.70;;;;;;5052366;28;20630;-63
2024/01/15 04:32:09;;;;;;;2.33;0.90;;;15.30;53.70;;;;;;5052085;28;20211;-63
2024/01/15 04:34:35;;;;;;;0.73;0.63;;;15.30;53.70;;;;;;5051441;28;20182;-63
2024/01/15 04:37:01;;;;;;;2.40;1.00;;;15.30;53.80;;;;;;5052316;28;20171;-64
2024/01/15 04:39:26;;;;;;;1.98;0.88;;;15.30;53.70;;;;;;5050749;28;20171;-64
2024/01/15 04:41:52;;;;;;;1.30;1.00;;;15.30;53.70;;;;;;5051606;28;20179;-64
2024/01/15 04:44:17;;;;;;;1.92;0.95;;;15.30;53.50;;;;;;5051847;28;20317;-63
2024/01/15 04:46:43;;;;;;;1.83;0.85;;;15.30;53.70;;;;;;5052089;28;20324;-63
2024/01/15 04:49:09;;;;;;;1.45;1.02;;;15.30;53.70;;;;;;5051586;28;20175;-64
2024/01/15 04:51:35;;;;;;;1.83;0.98;;;15.30;53.70;;;;;;5051536;28;20234;-63
2024/01/15 04:54:00;;;;;;;1.95;0.95;;;15.30;53.70;;;;;;5052102;28;20181;-64
2024/01/15 04:56:26;;;;;;;2.58;1.00;;;15.20;53.60;;;;;;5050962;28;20262;-63
2024/01/15 04:58:51;;;;;;;2.22;0.82;;;15.20;53.70;;;;;;5051948;28;20232;-64
2024/01/15 05:01:17;;;;;;;2.35;0.82;;;15.20;53.70;;;;;;5051602;28;20179;-65
2024/01/15 05:03:43;;;;;;;2.85;1.13;;;15.20;53.70;;;;;;5051443;28;20183;-64
2024/01/15 05:06:08;;;;;;;1.85;0.70;;;15.20;53.60;;;;;;5052106;28;20225;-65
2024/01/15 05:08:34;;;;;;;2.33;1.30;;;15.20;53.70;;;;;;5051668;28;20233;-64
2024/01/15 05:10:59;;;;;;;0.80;0.73;;;15.20;53.80;;;;;;5051295;28;20213;-64
2024/01/15 05:13:25;;;;;;;1.45;0.90;;;15.20;53.70;;;;;;5053813;28;20178;-66
2024/01/15 05:15:50;;;;;;;1.42;0.85;;;15.20;53.70;;;;;;5055950;28;20630;-64
2024/01/15 05:18:16;;;;;;;1.75;0.70;;;15.20;53.70;;;;;;5054736;28;20691;-64
2024/01/15 05:20:42;;;;;;;1.15;0.85;;;15.10;53.80;;;;;;5055935;28;20175;-64
2024/01/15 05:23:08;;;;;;;0.70;0.70;;;15.10;53.70;;;;;;5055843;28;20190;-64
2024/01/15 05:25:33;;;;;;;1.08;0.90;;;15.10;53.80;;;;;;5054756;28;20179;-64
2024/01/15 05:27:59;;;;;;;2.15;1.05;;;15.10;53.70;;;;;;5055697;28;20224;-64
2024/01/15 05:30:25;;;;;;;2.83;1.00;;;15.10;53.80;;;;;;5055234;28;20293;-63
2024/01/15 05:32:50;;;;;;;1.77;0.95;;;15.10;53.70;;;;;;5055043;28;20326;-63
2024/01/15 05:35:16;;;;;;;1.23;0.80;;;15.10;53.70;;;;;;5055407;28;20590;-64
2024/01/15 05:37:45;;;;;;;2.45;1.13;;;15.10;53.70;;;;;;5054787;28;20175;-64
2024/01/15 05:40:11;;;;;;;2.58;1.10;;;15.10;53.70;;;;;;5055338;28;20167;-64
2024/01/15 05:42:36;;;;;;;1.58;1.10;;;15.10;53.80;;;;;;5055105;28;20183;-64
2024/01/15 05:45:04;;;;;;;1.25;0.82;;;15.10;54.40;;;;;;5054585;28;20630;-64
2024/01/15 05:47:30;;;;;;;1.35;0.93;;;15.10;53.80;;;;;;5054919;28;20175;-64
2024/01/15 05:49:56;;;;;;;1.50;0.82;;;15.10;53.80;;;;;;5055425;28;20177;-64
2024/01/15 05:52:22;;;;;;;2.63;0.88;;;15.00;53.80;;;;;;5053838;28;20237;-63
2024/01/15 05:54:47;;;;;;;2.45;0.98;;;15.00;53.80;;;;;;5055060;28;20175;-64
2024/01/15 05:57:13;;;;;;;1.90;0.90;;;15.00;53.80;;;;;;5055038;28;20187;-64
2024/01/15 05:59:39;;;;;;;1.95;1.05;;;15.20;54.00;;;;;;5054278;28;20185;-64
2024/01/15 06:02:04;;;;;;;2.50;1.10;;;15.00;53.80;;;;;;5054991;28;20174;-64
2024/01/15 06:04:30;;;;;;;2.35;0.93;;;15.00;53.90;;;;;;5054783;28;20175;-64
2024/01/15 06:06:55;;;;;;;2.17;1.00;;;15.00;53.80;;;;;;5054195;28;20189;-65
2024/01/15 06:09:21;;;;;;;1.30;0.70;;;15.00;53.80;;;;;;5054576;28;20171;-65
2024/01/15 06:11:46;;;;;;;0.80;0.70;;;15.00;53.80;;;;;;5054680;28;20755;-64
2024/01/15 06:14:12;;;;;;;2.28;0.93;;;15.00;53.80;;;;;;5054066;28;20179;-64
2024/01/15 06:16:37;;;;;;;2.80;1.00;;;14.90;53.90;;;;;;5054378;28;20618;-64
2024/01/15 06:19:03;;;;;;;3.28;1.00;;;15.00;53.90;;;;;;5054861;28;20167;-64
2024/01/15 06:21:28;;;;;;;2.65;1.10;;;15.00;53.80;;;;;;5053539;28;20547;-64
2024/01/15 06:23:56;;;;;;;2.50;1.10;;;14.90;53.90;;;;;;5054209;28;20290;-64
2024/01/15 06:26:22;;;;;;;1.60;0.80;;;14.90;53.80;;;;;;5054299;28;20179;-64
2024/01/15 06:28:47;;;;;;;2.53;0.90;;;14.90;53.90;;;;;;5053743;28;20182;-63
2024/01/15 06:31:13;;;;;;;1.42;0.90;;;14.90;53.90;;;;;;5054542;28;20215;-63
2024/01/15 06:33:38;;;;;;;2.05;1.10;;;14.90;53.90;;;;;;5054458;28;20661;-64
2024/01/15 06:36:05;;;;;;;1.17;0.63;;;14.90;53.90;;;;;;5053590;28;20646;-64
2024/01/15 06:38:30;;;;;;;1.27;0.82;;;14.90;53.90;;;;;;5054121;28;20190;-64
2024/01/15 06:40:56;;;;;;;2.28;0.95;;;14.90;54.00;;;;;;5053612;28;20176;-64
2024/01/15 06:43:22;;;;;;;1.80;1.13;;;14.90;54.00;;;;;;5053814;28;20171;-64
2024/01/15 06:45:47;;;;;;;1.17;0.80;;;14.90;54.00;;;;;;5054187;28;20211;-64
2024/01/15 06:48:16;;;;;;;1.13;0.60;;;14.90;54.00;;;;;;5053454;28;20199;-63
2024/01/15 06:50:42;;;;;;;1.25;0.80;;;14.90;54.00;;;;;;5053987;28;20179;-64
2024/01/15 06:53:08;;;;;;;1.58;0.70;;;15.00;53.90;;;;;;5054080;28;20183;-64
2024/01/15 06:55:33;;;;;;;0.98;0.85;;;15.00;53.80;;;;;;5053021;28;20237;-64
2024/01/15 06:57:59;;;;;;;2.20;0.80;;;15.10;53.90;;;;;;5053933;28;20668;-65
2024/01/15 07:00:25;;;;;;;1.05;0.73;;;15.20;53.80;;;;;;5053746;28;20557;-64
2024/01/15 07:02:51;;;;;;;1.15;0.82;;;15.30;53.80;;;;;;5053284;28;20697;-64
2024/01/15 07:05:17;;;;;;;1.45;0.70;;;15.40;53.70;;;;;;5053605;28;20210;-65
2024/01/15 07:07:42;;;;;;;0.98;0.85;;;15.60;53.50;;;;;;5053977;28;20203;-68
2024/01/15 07:10:08;;;;;;;1.13;0.80;;;15.80;53.20;;;;;;5053092;28;20175;-66
2024/01/15 07:12:34;;;;;;;1.83;1.00;;;16.00;53.00;;;;;;5053260;28;20222;-64
2024/01/15 07:14:59;;;;;;;1.42;0.52;;;16.10;52.70;;;;;;5053754;28;20217;-64
2024/01/15 07:17:25;;;;;;;1.25;0.70;;;16.20;52.50;;;;;;5052691;28;20204;-63
2024/01/15 07:19:50;;;;;;;1.10;0.70;;;16.30;52.30;;;;;;5053523;28;20175;-63
2024/01/15 07:22:17;;;;;;;1.42;0.75;;;16.40;52.20;;;;;;5053325;28;20282;-64
2024/01/15 07:24:43;;;;;;;0.55;0.52;;;16.50;52.10;;;;;;5052800;28;20179;-63
2024/01/15 07:27:08;;;;;;;1.05;0.65;;;16.40;52.10;;;;;;5053408;28;20181;-63
2024/01/15 07:29:37;;;;;;;0.95;0.70;;;16.40;52.20;;;;;;5053219;28;20178;-63
2024/01/15 07:32:03;;;;;;;1.30;0.70;;;16.30;52.20;;;;;;5052691;28;20254;-62
2024/01/15 07:34:28;;;;;;;1.02;0.50;;;16.30;52.20;;;;;;5052967;28;20646;-63
2024/01/15 07:36:54;;;;;;;0.98;0.50;;;16.40;52.30;;;;;;5052549;28;20182;-63
2024/01/15 07:39:19;;;;;;;0.88;0.77;;;16.40;52.30;;;;;;5052101;28;20631;-63
2024/01/15 07:41:45;;;;;;;0.90;0.68;;;16.50;52.30;;;;;;5053098;28;20176;-63
2024/01/15 07:44:10;;;;;;;0.70;0.50;;;16.50;52.10;;;;;;5052279;28;20182;-63
2024/01/15 07:46:36;;;;;;;0.75;0.57;;;16.60;52.10;;;;;;5052858;28;20174;-63
2024/01/15 07:49:01;;;;;;;1.25;0.70;;;16.60;52.10;;;;;;5053000;28;20557;-62
2024/01/15 07:51:27;;;;;;;0.50;0.50;;;16.60;52.10;;;;;;5051795;28;20237;-63
2024/01/15 07:53:53;;;;;;;1.05;0.63;;;16.70;52.10;;;;;;5052928;28;20167;-66
2024/01/15 07:56:19;;;;;;;1.40;0.63;;;16.70;52.00;;;;;;5052496;28;20178;-68
2024/01/15 07:58:44;;;;;;;2.65;0.88;;;16.80;52.00;;;;;;5052338;28;20179;-67
2024/01/15 08:01:10;;;;;;;3.03;0.85;;;16.80;52.00;;;;;;5052926;28;20175;-69
2024/01/15 08:03:35;;;;;;;1.05;0.80;;;16.80;52.00;;;;;;5052507;28;20220;-68
2024/01/15 08:06:01;;;;;;;1.25;1.10;;;16.80;52.00;;;;;;5051927;28;20218;-70
2024/01/15 08:08:26;;;;;;;0.95;0.52;;;16.90;52.10;;;;;;5051993;28;20261;-72
2024/01/15 08:10:52;;;;;;;0.82;0.63;;;16.90;52.10;;;;;;5052384;28;20693;-71
2024/01/15 08:13:18;;;;;;;3.20;0.63;;;16.90;52.30;;;;;;5051679;28;20592;-69
2024/01/15 08:15:44;;;;;;;2.40;0.90;;;16.90;52.40;;;;;;5052306;28;20622;-64
2024/01/15 08:18:09;;;;;;;2.67;0.63;;;17.00;52.20;;;;;;5051639;28;20265;-64
2024/01/15 08:20:35;;;;;;;1.17;0.70;;;16.90;52.30;;;;;;5051545;28;20752;-64
2024/01/15 08:23:00;;;;;;;2.90;0.93;;;16.90;52.20;;;;;;5052391;28;20221;-64
2024/01/15 08:25:26;;;;;;;1.00;0.70;;;16.90;52.30;;;;;;5052034;28;20175;-64
2024/01/15 08:27:52;;;;;;;1.48;0.80;;;16.90;52.30;;;;;;5051916;28;20175;-64
2024/01/15 08:30:18;;;;;;;2.25;0.77;;;17.00;52.30;;;;;;5051861;28;20179;-64
2024/01/15 08:32:44;;;;;;;1.88;0.98;;;17.00;52.10;;;;;;5052303;28;20231;-64
2024/01/15 08:35:10;;;;;;;5.07;1.00;;;17.00;52.80;;;;;;5051468;28;20644;-64
2024/01/15 08:37:39;;;;;;;2.65;0.95;;;17.00;52.20;;;;;;5051879;28;20189;-64
2024/01/15 08:40:04;;;;;;;1.17;0.65;;;17.10;52.20;;;;;;5052075;28;20212;-64
2024/01/15 08:42:30;;;;;;;1.33;0.40;;;17.00;52.10;;;;;;5051343;28;20183;-64
2024/01/15 08:44:55;;;;;;;1.80;0.70;;;17.00;52.10;;;;;;5052283;28;20526;-64
2024/01/15 08:47:21;;;;;;;0.77;0.60;;;17.00;52.10;;;;;;5051772;28;20279;-64
2024/01/15 08:49:46;;;;;;;1.73;0.75;;;17.10;52.20;;;;;;5051458;28;20258;-64
2024/01/15 08:52:13;;;;;;;1.55;0.60;;;17.00;52.10;;;;;;5051782;28;20348;-64
2024/01/15 08:54:39;;;;;;;2.25;0.60;;;17.00;52.20;;;;;;5051157;28;20658;-64
2024/01/15 08:57:04;;;;;;;0.75;0.65;;;16.90;52.20;;;;;;5052018;28;20668;-64
2024/01/15 08:59:30;;;;;;;0.98;0.65;;;17.00;52.30;;;;;;5051561;28;20285;-64
2024/01/15 09:01:57;;;;;;;1.10;0.73;;;17.00;52.30;;;;;;5051415;28;20266;-64
2024/01/15 09:04:23;;;;;;;1.05;0.70;;;16.90;52.30;;;;;;5051703;28;20179;-66
2024/01/15 09:06:48;;;;;;;1.10;0.52;;;16.90;52.30;;;;;;5052061;28;20642;-64
2024/01/15 09:09:17;;;;;;;1.30;0.68;;;16.80;52.30;;;;;;5051163;28;20200;-66
2024/01/15 09:11:42;;;;;;;1.45;0.68;;;16.70;52.40;;;;;;5052298;28;20219;-64
2024/01/15 09:14:09;;;;;;;1.00;0.70;;;16.60;52.50;;;;;;5051800;28;20721;-64
2024/01/15 09:16:34;;;;;;;1.00;0.65;;;16.60;52.60;;;;;;5050983;28;20187;-64
2024/01/15 09:19:00;;;;;;;0.65;0.60;;;16.60;52.60;;;;;;5051869;28;20175;-64
2024/01/15 09:21:26;;;;;;;1.13;0.60;;;16.60;52.70;;;;;;5051483;28;20250;-64
2024/01/15 09:23:51;;;;;;;1.85;0.95;;;16.60;52.70;;;;;;5051037;28;20205;-64
2024/01/15 09:26:17;;;;;;;0.55;0.55;;;16.60;52.70;;;;;;5051551;28;20168;-64
2024/01/15 09:28:42;;;;;;;0.95;0.68;;;16.60;52.70;;;;;;5051804;28;20175;-63
2024/01/15 09:31:08;;;;;;;0.68;0.68;;;16.70;52.60;;;;;;5051047;28;20199;-64
2024/01/15 09:33:33;;;;;;;0.70;0.70;;;16.80;52.50;;;;;;5051397;28;20179;-64
2024/01/15 09:36:03;;;;;;;0.75;0.50;;;16.80;52.50;;;;;;5051710;28;20178;-64
2024/01/15 09:38:32;;;;;;;0.85;0.50;;;16.70;52.50;;;;;;5050613;28;20190;-65
2024/01/15 09:40:57;;;;;;;1.25;0.70;;;16.70;52.50;;;;;;5051727;28;20175;-64
2024/01/15 09:43:23;;;;;;;0.77;0.65;;;16.70;52.50;;;;;;5050210;28;20263;-64
2024/01/15 09:45:49;;;;;;;1.25;0.60;;;16.70;52.50;;;;;;5050891;28;20509;-64
2024/01/15 09:48:15;;;;;;;0.52;0.45;;;16.70;52.40;;;;;;5051263;28;20689;-64
2024/01/15 09:50:40;;;;;;;0.50;0.50;;;16.80;52.50;;;;;;5051243;28;20267;-64
2024/01/15 09:53:06;;;;;;;0.55;0.50;;;16.80;52.50;;;;;;5051021;28;20199;-64
2024/01/15 09:55:34;;;;;;;1.10;0.73;;;16.80;52.40;;;;;;5051341;28;20170;-64
2024/01/15 09:58:01;;;;;;;1.48;0.60;;;16.90;52.40;;;;;;5050782;28;20179;-64
2024/01/15 10:00:28;;;;;;;0.88;0.60;;;16.90;52.30;;;;;;5054642;28;20586;-64
2024/01/15 10:02:56;;;;;;;2.03;0.65;;;16.90;52.30;;;;;;5053814;28;20662;-64
2024/01/15 10:05:22;;;;;;;1.30;0.65;;;16.80;52.30;;;;;;5053849;28;20190;-64
2024/01/15 10:07:49;;;;;;;0.47;0.47;;;16.80;52.50;;;;;;5053948;28;20167;-64
2024/01/15 10:10:15;;;;;;;0.73;0.50;;;16.70;52.50;;;;;;5054883;28;20250;-64
2024/01/15 10:12:41;;;;;;;0.90;0.60;;;16.60;52.60;;;;;;5054207;28;20628;-64
2024/01/15 10:15:09;;;;;;;0.90;0.60;;;16.60;52.70;;;;;;5054717;28;20163;-64
2024/01/15 10:17:37;;;;;;;0.75;0.60;;;16.50;52.70;;;;;;5053355;28;20252;-64
2024/01/15 10:20:04;;;;;;;1.20;0.68;;;16.50;52.80;;;;;;5054043;28;20650;-63
2024/01/15 10:22:29;;;;;;;1.35;0.63;;;16.50;52.80;;;;;;5054310;28;20626;-64
2024/01/15 10:24:55;;;;;;;0.85;0.60;;;16.60;52.80;;;;;;5054555;28;20181;-64
2024/01/15 10:27:20;;;;;;;0.50;0.45;;;16.60;52.60;;;;;;5052310;28;20187;-64
2024/01/15 10:29:46;;;;;;;0.85;0.60;;;16.70;52.60;;;;;;5054451;28;20263;-63
2024/01/15 10:32:12;;;;;;;0.73;0.60;;;16.70;52.60;;;;;;5054437;28;20727;-64
2024/01/15 10:34:39;;;;;;;1.38;0.55;;;16.60;52.70;;;;;;5053405;28;20175;-64
2024/01/15 10:37:06;;;;;;;1.00;0.70;;;16.60;52.60;;;;;;5054381;28;20646;-64
2024/01/15 10:39:32;;;;;;;0.60;0.60;;;16.60;53.30;;;;;;5054069;28;20175;-64
2024/01/15 10:41:57;;;;;;;0.80;0.60;;;16.60;52.70;;;;;;5052400;28;20175;-64
2024/01/15 10:44:23;;;;;;;0.65;0.45;;;16.50;52.70;;;;;;5052842;28;20229;-65
2024/01/15 10:46:48;;;;;;;0.77;0.40;;;16.50;52.90;;;;;;5054293;28;20179;-64
2024/01/15 10:49:14;;;;;;;0.98;0.73;;;16.50;52.90;;;;;;5053258;28;20163;-65
2024/01/15 10:51:40;;;;;;;0.60;0.60;;;16.50;52.90;;;;;;5053691;28;20309;-64
2024/01/15 10:54:05;;;;;;;0.63;0.40;;;16.50;53.00;;;;;;5052273;28;20186;-64
2024/01/15 10:56:34;;;;;;;1.17;0.70;;;16.50;52.80;;;;;;5052427;28;20591;-66
2024/01/15 10:59:00;;;;;;;1.48;0.50;;;16.50;52.70;;;;;;5052896;28;20179;-64
2024/01/15 11:01:25;;;;;;;0.65;0.50;;;16.50;52.70;;;;;;5051809;28;20254;-64
2024/01/15 11:03:51;;;;;;;0.77;0.50;;;16.60;52.60;;;;;;5053881;28;20174;-64
2024/01/15 11:06:20;;;;;;;0.63;0.63;;;16.60;52.60;;;;;;5053826;28;20174;-66
2024/01/15 11:08:52;;;;;;;0.95;0.80;;;16.60;52.60;;;;;;5051961;28;20179;-65
2024/01/15 11:11:17;;;;;;;2.38;1.02;;;16.50;52.60;;;;;;5053067;28;20226;-67
2024/01/15 11:13:44;;;;;;;0.80;0.80;;;16.40;52.40;;;;;;5053550;28;20227;-70
2024/01/15 11:16:13;;;;;;;1.55;0.70;;;16.40;52.60;;;;;;5052877;28;20250;-68
2024/01/15 11:18:42;;;;;;;2.80;0.70;;;16.40;52.80;;;;;;5053413;28;20180;-69
2024/01/15 11:21:16;;;;;;;3.97;0.60;;;16.40;52.70;;;;;;5053584;28;20179;-67
2024/01/15 11:23:46;;;;;;;1.77;1.15;;;16.40;52.80;;;;;;5052724;28;20258;-70
2024/01/15 11:26:40;;;;;;;2.80;0.95;;;16.50;52.70;;;;;;5053371;28;20187;-66
2024/01/15 11:29:07;;;;;;;2.45;0.55;;;16.80;52.50;;;;;;5050631;28;20211;-68
2024/01/15 11:31:38;;;;;;;2.47;0.98;;;17.00;52.40;;;;;;5051995;28;20207;-67
2024/01/15 11:34:05;;;;;;;1.88;0.60;;;17.20;52.10;;;;;;5053240;28;20225;-68
2024/01/15 11:36:49;;;;;;;1.67;0.82;;;17.50;51.70;;;;;;5052008;28;20209;-66
2024/01/15 11:39:32;;;;;;;1.00;0.60;;;17.60;51.70;;;;;;5052573;28;20605;-67
2024/01/15 11:41:59;;;;;;;1.65;0.90;;;17.70;51.30;;;;;;5053029;28;20258;-67
2024/01/15 11:44:25;;;;;;;0.95;0.60;;;17.70;51.10;;;;;;5051881;28;20708;-69
2024/01/15 11:47:04;;;;;;;2.45;0.70;;;17.80;51.60;;;;;;5053072;28;20183;-66
2024/01/15 11:49:48;;;;;;;3.60;0.60;;;17.90;50.80;;;;;;5052443;28;20175;-70
2024/01/15 11:52:19;;;;;;;1.30;0.68;;;18.00;50.70;;;;;;5051480;28;20254;-67
2024/01/15 11:54:56;;;;;;;1.83;0.82;;;18.00;50.70;;;;;;5051784;28;20254;-68
2024/01/15 11:57:40;;;;;;;0.68;0.43;;;18.10;50.70;;;;;;5050560;28;20181;-68
2024/01/15 12:00:09;;;;;;;1.05;0.60;;;18.10;50.70;;;;;;5052706;28;20549;-68
2024/01/15 12:02:35;;;;;;;2.15;0.90;;;18.10;50.70;;;;;;5052555;28;20298;-68
2024/01/15 12:05:01;;;;;;;2.47;0.70;;;18.20;50.70;;;;;;5050959;28;20258;-67
2024/01/15 12:07:26;;;;;;;1.83;0.75;;;18.30;50.90;;;;;;5052183;28;20718;-68
2024/01/15 12:09:52;;;;;;;1.60;0.73;;;18.30;50.70;;;;;;5052528;28;20183;-68
2024/01/15 12:12:25;;;;;;;1.02;0.57;;;18.40;50.60;;;;;;5051576;28;20211;-68
2024/01/15 12:14:50;;;;;;;2.25;0.63;;;18.50;50.70;;;;;;5052743;28;20179;-68
2024/01/15 12:17:16;;;;;;;1.42;0.50;;;18.50;50.50;;;;;;5051133;28;20179;-71
2024/01/15 12:19:42;;;;;;;1.13;0.60;;;18.60;50.50;;;;;;5051926;28;20170;-67
2024/01/15 12:22:07;;;;;;;1.40;0.70;;;18.60;50.50;;;;;;5051994;28;20179;-67
2024/01/15 12:24:33;;;;;;;1.17;0.60;;;18.70;50.60;;;;;;5050977;28;20206;-68
2024/01/15 12:26:58;;;;;;;0.90;0.40;;;18.70;50.60;;;;;;5051631;28;20179;-68
2024/01/15 12:29:24;;;;;;;1.35;0.70;;;18.70;50.50;;;;;;5052252;28;20171;-69
2024/01/15 12:31:50;;;;;;;1.40;0.70;;;18.70;50.60;;;;;;5052385;28;20221;-68
2024/01/15 12:34:17;;;;;;;1.35;0.50;;;18.70;50.70;;;;;;5051266;28;20225;-72
2024/01/15 12:36:42;;;;;;;2.90;1.08;;;18.60;50.70;;;;;;5050759;28;20622;-68
2024/01/15 12:39:11;;;;;;;0.63;0.43;;;18.70;50.80;;;;;;5052114;28;20225;-69
2024/01/15 12:41:37;;;;;;;1.83;0.47;;;18.70;50.90;;;;;;5051070;28;20171;-68
2024/01/15 12:44:03;;;;;;;1.23;0.70;;;18.70;50.80;;;;;;5052328;28;20186;-68